sensor_id;sensor_type;location;lat;lon;timestamp;temperature;humidity
73955;DHT22;62306;52.516;13.290;2022-12-20T00:00:52;4.30;95.90
73955;DHT22;62306;52.516;13.290;2022-12-20T00:03:19;4.30;95.90
73955;DHT22;62306;52.516;13.290;2022-12-20T00:05:46;4.40;95.80
73955;DHT22;62306;52.516;13.290;2022-12-20T00:08:14;4.40;95.80
73955;DHT22;62306;52.516;13.290;2022-12-20T00:10:43;4.40;95.60
73955;DHT22;62306;52.516;13.290;2022-12-20T00:13:12;4.40;95.50
73955;DHT22;62306;52.516;13.290;2022-12-20T00:15:39;4.40;95.50
73955;DHT22;62306;52.516;13.290;2022-12-20T00:18:06;4.40;95.40
73955;DHT22;62306;52.516;13.290;2022-12-20T00:20:33;4.40;95.30
73955;DHT22;62306;52.516;13.290;2022-12-20T00:23:00;4.40;95.40
73955;DHT22;62306;52.516;13.290;2022-12-20T00:25:27;4.40;95.40
73955;DHT22;62306;52.516;13.290;2022-12-20T00:27:54;4.40;95.40
73955;DHT22;62306;52.516;13.290;2022-12-20T00:30:22;4.40;95.40
73955;DHT22;62306;52.516;13.290;2022-12-20T00:32:49;4.40;95.20
73955;DHT22;62306;52.516;13.290;2022-12-20T00:35:16;4.40;95.20
73955;DHT22;62306;52.516;13.290;2022-12-20T00:37:43;4.40;95.00
73955;DHT22;62306;52.516;13.290;2022-12-20T00:40:10;4.40;95.10
73955;DHT22;62306;52.516;13.290;2022-12-20T00:42:37;4.40;95.10
73955;DHT22;62306;52.516;13.290;2022-12-20T00:45:05;4.40;95.10
73955;DHT22;62306;52.516;13.290;2022-12-20T00:47:33;4.40;95.00
73955;DHT22;62306;52.516;13.290;2022-12-20T00:50:00;4.40;94.90
73955;DHT22;62306;52.516;13.290;2022-12-20T00:52:27;4.40;94.80
73955;DHT22;62306;52.516;13.290;2022-12-20T00:54:54;4.40;94.80
73955;DHT22;62306;52.516;13.290;2022-12-20T00:57:21;4.40;94.80
73955;DHT22;62306;52.516;13.290;2022-12-20T00:59:48;4.40;94.70
73955;DHT22;62306;52.516;13.290;2022-12-20T01:02:15;4.40;94.70
73955;DHT22;62306;52.516;13.290;2022-12-20T01:04:44;4.50;94.70
73955;DHT22;62306;52.516;13.290;2022-12-20T01:07:11;4.40;94.60
73955;DHT22;62306;52.516;13.290;2022-12-20T01:09:38;4.40;94.70
73955;DHT22;62306;52.516;13.290;2022-12-20T01:12:05;4.40;94.60
73955;DHT22;62306;52.516;13.290;2022-12-20T01:14:32;4.50;94.60
73955;DHT22;62306;52.516;13.290;2022-12-20T01:16:59;4.50;94.60
73955;DHT22;62306;52.516;13.290;2022-12-20T01:19:26;4.50;94.60
73955;DHT22;62306;52.516;13.290;2022-12-20T01:21:55;4.40;94.50
73955;DHT22;62306;52.516;13.290;2022-12-20T01:24:21;4.40;94.50
73955;DHT22;62306;52.516;13.290;2022-12-20T01:26:48;4.50;94.40
73955;DHT22;62306;52.516;13.290;2022-12-20T01:29:15;4.50;94.50
73955;DHT22;62306;52.516;13.290;2022-12-20T01:31:43;4.50;94.30
73955;DHT22;62306;52.516;13.290;2022-12-20T01:34:10;4.50;94.20
73955;DHT22;62306;52.516;13.290;2022-12-20T01:36:38;4.60;94.20
73955;DHT22;62306;52.516;13.290;2022-12-20T01:39:08;4.60;94.10
73955;DHT22;62306;52.516;13.290;2022-12-20T01:41:36;4.60;94.10
73955;DHT22;62306;52.516;13.290;2022-12-20T01:44:04;4.60;94.10
73955;DHT22;62306;52.516;13.290;2022-12-20T01:46:33;4.60;94.00
73955;DHT22;62306;52.516;13.290;2022-12-20T01:49:04;4.60;93.90
73955;DHT22;62306;52.516;13.290;2022-12-20T01:51:35;4.60;94.00
73955;DHT22;62306;52.516;13.290;2022-12-20T01:54:09;4.60;94.00
73955;DHT22;62306;52.516;13.290;2022-12-20T01:56:37;4.60;93.90
73955;DHT22;62306;52.516;13.290;2022-12-20T01:59:05;4.60;94.00
73955;DHT22;62306;52.516;13.290;2022-12-20T02:01:33;4.60;94.00
73955;DHT22;62306;52.516;13.290;2022-12-20T02:04:00;4.60;94.10
73955;DHT22;62306;52.516;13.290;2022-12-20T02:06:28;4.60;94.10
73955;DHT22;62306;52.516;13.290;2022-12-20T02:08:57;4.60;94.10
73955;DHT22;62306;52.516;13.290;2022-12-20T02:11:45;4.50;94.00
73955;DHT22;62306;52.516;13.290;2022-12-20T02:14:20;4.50;94.10
73955;DHT22;62306;52.516;13.290;2022-12-20T02:16:56;4.40;94.20
73955;DHT22;62306;52.516;13.290;2022-12-20T02:19:44;4.40;94.40
73955;DHT22;62306;52.516;13.290;2022-12-20T02:22:25;4.40;94.40
73955;DHT22;62306;52.516;13.290;2022-12-20T02:25:15;4.50;94.30
73955;DHT22;62306;52.516;13.290;2022-12-20T02:27:57;4.60;94.20
73955;DHT22;62306;52.516;13.290;2022-12-20T02:30:29;4.60;94.10
73955;DHT22;62306;52.516;13.290;2022-12-20T02:32:59;4.60;93.90
73955;DHT22;62306;52.516;13.290;2022-12-20T02:35:30;4.60;93.80
73955;DHT22;62306;52.516;13.290;2022-12-20T02:37:59;4.70;93.90
73955;DHT22;62306;52.516;13.290;2022-12-20T02:40:28;4.60;94.00
73955;DHT22;62306;52.516;13.290;2022-12-20T02:43:00;4.60;94.00
73955;DHT22;62306;52.516;13.290;2022-12-20T02:45:32;4.60;93.90
73955;DHT22;62306;52.516;13.290;2022-12-20T02:48:03;4.60;93.90
73955;DHT22;62306;52.516;13.290;2022-12-20T02:50:34;4.70;93.90
73955;DHT22;62306;52.516;13.290;2022-12-20T02:53:02;4.70;93.80
73955;DHT22;62306;52.516;13.290;2022-12-20T02:55:37;4.80;93.70
73955;DHT22;62306;52.516;13.290;2022-12-20T02:58:11;4.80;93.70
73955;DHT22;62306;52.516;13.290;2022-12-20T03:00:42;4.80;93.60
73955;DHT22;62306;52.516;13.290;2022-12-20T03:03:12;4.80;93.70
73955;DHT22;62306;52.516;13.290;2022-12-20T03:05:49;4.80;93.60
73955;DHT22;62306;52.516;13.290;2022-12-20T03:08:17;4.80;93.60
73955;DHT22;62306;52.516;13.290;2022-12-20T03:10:44;4.80;93.50
73955;DHT22;62306;52.516;13.290;2022-12-20T03:13:11;4.80;93.40
73955;DHT22;62306;52.516;13.290;2022-12-20T03:15:38;4.80;93.40
73955;DHT22;62306;52.516;13.290;2022-12-20T03:18:06;4.90;93.20
73955;DHT22;62306;52.516;13.290;2022-12-20T03:20:34;4.90;93.20
73955;DHT22;62306;52.516;13.290;2022-12-20T03:23:01;4.90;93.20
73955;DHT22;62306;52.516;13.290;2022-12-20T03:25:28;4.90;93.40
73955;DHT22;62306;52.516;13.290;2022-12-20T03:27:55;4.90;93.20
73955;DHT22;62306;52.516;13.290;2022-12-20T03:30:22;5.00;93.20
73955;DHT22;62306;52.516;13.290;2022-12-20T03:32:49;5.00;93.20
73955;DHT22;62306;52.516;13.290;2022-12-20T03:35:17;5.00;93.10
73955;DHT22;62306;52.516;13.290;2022-12-20T03:37:44;5.10;92.90
73955;DHT22;62306;52.516;13.290;2022-12-20T03:40:12;5.10;92.80
73955;DHT22;62306;52.516;13.290;2022-12-20T03:42:40;5.10;92.70
73955;DHT22;62306;52.516;13.290;2022-12-20T03:45:08;5.20;92.50
73955;DHT22;62306;52.516;13.290;2022-12-20T03:47:35;5.20;92.60
73955;DHT22;62306;52.516;13.290;2022-12-20T03:50:03;5.20;92.60
73955;DHT22;62306;52.516;13.290;2022-12-20T03:52:31;5.20;92.70
73955;DHT22;62306;52.516;13.290;2022-12-20T03:54:59;5.10;92.70
73955;DHT22;62306;52.516;13.290;2022-12-20T03:57:26;5.20;92.90
73955;DHT22;62306;52.516;13.290;2022-12-20T03:59:53;5.10;92.70
73955;DHT22;62306;52.516;13.290;2022-12-20T04:02:20;5.10;92.80
73955;DHT22;62306;52.516;13.290;2022-12-20T04:04:48;5.00;93.00
73955;DHT22;62306;52.516;13.290;2022-12-20T04:07:15;4.90;93.20
73955;DHT22;62306;52.516;13.290;2022-12-20T04:09:44;4.90;93.20
73955;DHT22;62306;52.516;13.290;2022-12-20T04:12:11;4.90;93.30
73955;DHT22;62306;52.516;13.290;2022-12-20T04:14:38;4.90;93.40
73955;DHT22;62306;52.516;13.290;2022-12-20T04:17:05;4.80;93.40
73955;DHT22;62306;52.516;13.290;2022-12-20T04:19:32;4.80;93.60
73955;DHT22;62306;52.516;13.290;2022-12-20T04:21:59;4.80;93.60
73955;DHT22;62306;52.516;13.290;2022-12-20T04:24:26;5.60;93.70
73955;DHT22;62306;52.516;13.290;2022-12-20T04:26:54;4.80;93.60
73955;DHT22;62306;52.516;13.290;2022-12-20T04:29:21;4.80;93.50
73955;DHT22;62306;52.516;13.290;2022-12-20T04:31:48;4.80;93.50
73955;DHT22;62306;52.516;13.290;2022-12-20T04:34:15;4.80;93.60
73955;DHT22;62306;52.516;13.290;2022-12-20T04:36:42;4.80;93.60
73955;DHT22;62306;52.516;13.290;2022-12-20T04:39:09;4.80;93.70
73955;DHT22;62306;52.516;13.290;2022-12-20T04:41:36;4.80;93.50
73955;DHT22;62306;52.516;13.290;2022-12-20T04:44:04;4.80;93.60
73955;DHT22;62306;52.516;13.290;2022-12-20T04:46:31;4.80;93.70
73955;DHT22;62306;52.516;13.290;2022-12-20T04:48:58;4.80;93.60
73955;DHT22;62306;52.516;13.290;2022-12-20T04:51:26;4.80;93.70
73955;DHT22;62306;52.516;13.290;2022-12-20T04:53:53;4.80;93.70
73955;DHT22;62306;52.516;13.290;2022-12-20T04:56:20;4.70;93.70
73955;DHT22;62306;52.516;13.290;2022-12-20T04:58:49;4.70;93.70
73955;DHT22;62306;52.516;13.290;2022-12-20T05:01:19;4.70;93.70
73955;DHT22;62306;52.516;13.290;2022-12-20T05:03:47;4.70;93.80
73955;DHT22;62306;52.516;13.290;2022-12-20T05:06:14;4.60;93.80
73955;DHT22;62306;52.516;13.290;2022-12-20T05:08:41;4.60;93.90
73955;DHT22;62306;52.516;13.290;2022-12-20T05:11:08;4.70;94.00
73955;DHT22;62306;52.516;13.290;2022-12-20T05:13:35;4.50;93.80
73955;DHT22;62306;52.516;13.290;2022-12-20T05:16:03;4.80;93.60
73955;DHT22;62306;52.516;13.290;2022-12-20T05:18:31;4.80;93.50
73955;DHT22;62306;52.516;13.290;2022-12-20T05:20:59;4.90;93.40
73955;DHT22;62306;52.516;13.290;2022-12-20T05:23:44;4.90;93.30
73955;DHT22;62306;52.516;13.290;2022-12-20T05:26:31;4.90;93.20
73955;DHT22;62306;52.516;13.290;2022-12-20T05:28:59;4.90;93.10
73955;DHT22;62306;52.516;13.290;2022-12-20T05:31:26;4.90;93.10
73955;DHT22;62306;52.516;13.290;2022-12-20T05:33:54;4.90;93.10
73955;DHT22;62306;52.516;13.290;2022-12-20T05:36:21;4.90;93.10
73955;DHT22;62306;52.516;13.290;2022-12-20T05:38:48;4.90;93.10
73955;DHT22;62306;52.516;13.290;2022-12-20T05:41:15;5.00;93.10
73955;DHT22;62306;52.516;13.290;2022-12-20T05:43:42;5.00;92.90
73955;DHT22;62306;52.516;13.290;2022-12-20T05:46:09;5.00;92.90
73955;DHT22;62306;52.516;13.290;2022-12-20T05:48:36;5.00;92.80
73955;DHT22;62306;52.516;13.290;2022-12-20T05:51:05;5.10;92.80
73955;DHT22;62306;52.516;13.290;2022-12-20T05:53:32;5.10;92.80
73955;DHT22;62306;52.516;13.290;2022-12-20T05:56:00;5.20;92.80
73955;DHT22;62306;52.516;13.290;2022-12-20T05:58:27;5.20;92.80
73955;DHT22;62306;52.516;13.290;2022-12-20T06:00:54;5.20;92.80
73955;DHT22;62306;52.516;13.290;2022-12-20T06:03:23;5.20;92.80
73955;DHT22;62306;52.516;13.290;2022-12-20T06:05:50;5.20;92.90
73955;DHT22;62306;52.516;13.290;2022-12-20T06:08:18;5.20;92.90
73955;DHT22;62306;52.516;13.290;2022-12-20T06:10:47;5.30;92.80
73955;DHT22;62306;52.516;13.290;2022-12-20T06:13:14;5.30;92.80
73955;DHT22;62306;52.516;13.290;2022-12-20T06:15:41;5.30;92.80
73955;DHT22;62306;52.516;13.290;2022-12-20T06:18:08;5.30;92.90
73955;DHT22;62306;52.516;13.290;2022-12-20T06:20:36;5.40;92.90
73955;DHT22;62306;52.516;13.290;2022-12-20T06:23:03;5.40;92.90
73955;DHT22;62306;52.516;13.290;2022-12-20T06:25:31;5.40;93.00
73955;DHT22;62306;52.516;13.290;2022-12-20T06:27:58;5.40;93.20
73955;DHT22;62306;52.516;13.290;2022-12-20T06:30:26;5.40;93.30
73955;DHT22;62306;52.516;13.290;2022-12-20T06:32:53;5.40;93.40
73955;DHT22;62306;52.516;13.290;2022-12-20T06:35:20;5.40;93.60
73955;DHT22;62306;52.516;13.290;2022-12-20T06:37:47;5.40;93.80
73955;DHT22;62306;52.516;13.290;2022-12-20T06:40:14;5.40;94.00
73955;DHT22;62306;52.516;13.290;2022-12-20T06:42:42;5.40;94.10
73955;DHT22;62306;52.516;13.290;2022-12-20T06:45:10;5.40;94.30
73955;DHT22;62306;52.516;13.290;2022-12-20T06:47:37;5.50;94.40
73955;DHT22;62306;52.516;13.290;2022-12-20T06:50:05;5.50;94.60
73955;DHT22;62306;52.516;13.290;2022-12-20T06:52:33;5.40;94.70
73955;DHT22;62306;52.516;13.290;2022-12-20T06:55:00;5.40;94.80
73955;DHT22;62306;52.516;13.290;2022-12-20T06:57:27;5.40;95.10
73955;DHT22;62306;52.516;13.290;2022-12-20T06:59:55;5.40;95.10
73955;DHT22;62306;52.516;13.290;2022-12-20T07:02:22;5.40;95.30
73955;DHT22;62306;52.516;13.290;2022-12-20T07:04:49;5.40;95.30
73955;DHT22;62306;52.516;13.290;2022-12-20T07:07:16;5.50;95.30
73955;DHT22;62306;52.516;13.290;2022-12-20T07:09:43;5.50;95.40
73955;DHT22;62306;52.516;13.290;2022-12-20T07:12:11;5.50;95.40
73955;DHT22;62306;52.516;13.290;2022-12-20T07:14:38;5.50;95.40
73955;DHT22;62306;52.516;13.290;2022-12-20T07:17:07;5.50;95.40
73955;DHT22;62306;52.516;13.290;2022-12-20T07:19:34;5.60;95.50
73955;DHT22;62306;52.516;13.290;2022-12-20T07:22:02;5.60;95.30
73955;DHT22;62306;52.516;13.290;2022-12-20T07:24:29;5.60;95.30
73955;DHT22;62306;52.516;13.290;2022-12-20T07:26:56;5.70;95.30
73955;DHT22;62306;52.516;13.290;2022-12-20T07:29:23;5.70;95.30
73955;DHT22;62306;52.516;13.290;2022-12-20T07:31:50;5.70;95.30
73955;DHT22;62306;52.516;13.290;2022-12-20T07:34:18;5.70;95.20
73955;DHT22;62306;52.516;13.290;2022-12-20T07:36:46;5.70;95.30
73955;DHT22;62306;52.516;13.290;2022-12-20T07:39:13;5.80;95.50
73955;DHT22;62306;52.516;13.290;2022-12-20T07:41:40;5.80;95.50
73955;DHT22;62306;52.516;13.290;2022-12-20T07:44:07;5.80;95.50
73955;DHT22;62306;52.516;13.290;2022-12-20T07:46:34;5.80;95.60
73955;DHT22;62306;52.516;13.290;2022-12-20T07:49:01;5.80;95.70
73955;DHT22;62306;52.516;13.290;2022-12-20T07:51:32;5.80;95.80
73955;DHT22;62306;52.516;13.290;2022-12-20T07:54:02;5.90;95.70
73955;DHT22;62306;52.516;13.290;2022-12-20T07:56:32;5.90;95.90
73955;DHT22;62306;52.516;13.290;2022-12-20T07:59:01;5.90;96.00
73955;DHT22;62306;52.516;13.290;2022-12-20T08:01:29;5.90;96.00
73955;DHT22;62306;52.516;13.290;2022-12-20T08:04:01;5.90;96.10
73955;DHT22;62306;52.516;13.290;2022-12-20T08:06:30;5.90;96.30
73955;DHT22;62306;52.516;13.290;2022-12-20T08:08:59;5.90;96.40
73955;DHT22;62306;52.516;13.290;2022-12-20T08:11:29;5.90;96.40
73955;DHT22;62306;52.516;13.290;2022-12-20T08:13:56;5.90;96.40
73955;DHT22;62306;52.516;13.290;2022-12-20T08:16:23;5.90;96.60
73955;DHT22;62306;52.516;13.290;2022-12-20T08:18:50;5.90;96.70
73955;DHT22;62306;52.516;13.290;2022-12-20T08:21:17;5.90;96.60
73955;DHT22;62306;52.516;13.290;2022-12-20T08:23:45;5.90;96.80
73955;DHT22;62306;52.516;13.290;2022-12-20T08:26:12;5.90;96.90
73955;DHT22;62306;52.516;13.290;2022-12-20T08:28:39;5.90;96.90
73955;DHT22;62306;52.516;13.290;2022-12-20T08:31:08;5.90;96.90
73955;DHT22;62306;52.516;13.290;2022-12-20T08:33:36;5.90;96.90
73955;DHT22;62306;52.516;13.290;2022-12-20T08:36:05;5.90;97.00
73955;DHT22;62306;52.516;13.290;2022-12-20T08:38:33;5.90;97.10
73955;DHT22;62306;52.516;13.290;2022-12-20T08:41:06;6.00;97.10
73955;DHT22;62306;52.516;13.290;2022-12-20T08:43:36;6.00;97.20
73955;DHT22;62306;52.516;13.290;2022-12-20T08:46:03;6.00;97.30
73955;DHT22;62306;52.516;13.290;2022-12-20T08:48:31;6.00;97.10
73955;DHT22;62306;52.516;13.290;2022-12-20T08:51:00;6.10;97.20
73955;DHT22;62306;52.516;13.290;2022-12-20T08:53:28;6.10;97.10
73955;DHT22;62306;52.516;13.290;2022-12-20T08:56:03;6.10;97.10
73955;DHT22;62306;52.516;13.290;2022-12-20T08:58:32;6.20;97.10
73955;DHT22;62306;52.516;13.290;2022-12-20T09:00:59;6.20;97.10
73955;DHT22;62306;52.516;13.290;2022-12-20T09:03:28;6.20;97.00
73955;DHT22;62306;52.516;13.290;2022-12-20T09:05:55;6.20;97.00
73955;DHT22;62306;52.516;13.290;2022-12-20T09:08:23;6.20;97.10
73955;DHT22;62306;52.516;13.290;2022-12-20T09:10:50;6.20;97.20
73955;DHT22;62306;52.516;13.290;2022-12-20T09:13:17;6.30;97.10
73955;DHT22;62306;52.516;13.290;2022-12-20T09:15:47;6.30;97.00
73955;DHT22;62306;52.516;13.290;2022-12-20T09:18:14;6.30;97.00
73955;DHT22;62306;52.516;13.290;2022-12-20T09:20:42;6.40;97.00
73955;DHT22;62306;52.516;13.290;2022-12-20T09:23:10;6.40;97.00
73955;DHT22;62306;52.516;13.290;2022-12-20T09:25:37;6.50;96.80
73955;DHT22;62306;52.516;13.290;2022-12-20T09:28:04;6.50;96.70
73955;DHT22;62306;52.516;13.290;2022-12-20T09:30:31;6.60;96.70
73955;DHT22;62306;52.516;13.290;2022-12-20T09:33:00;6.70;96.70
73955;DHT22;62306;52.516;13.290;2022-12-20T09:35:27;6.70;96.60
73955;DHT22;62306;52.516;13.290;2022-12-20T09:37:54;6.90;96.40
73955;DHT22;62306;52.516;13.290;2022-12-20T09:40:25;7.00;96.20
73955;DHT22;62306;52.516;13.290;2022-12-20T09:42:52;7.10;96.00
73955;DHT22;62306;52.516;13.290;2022-12-20T09:45:25;7.20;95.90
73955;DHT22;62306;52.516;13.290;2022-12-20T09:47:52;7.40;95.50
73955;DHT22;62306;52.516;13.290;2022-12-20T09:50:34;7.50;95.10
73955;DHT22;62306;52.516;13.290;2022-12-20T09:53:13;7.60;94.60
73955;DHT22;62306;52.516;13.290;2022-12-20T09:55:47;7.50;94.50
73955;DHT22;62306;52.516;13.290;2022-12-20T09:58:34;7.50;94.60
73955;DHT22;62306;52.516;13.290;2022-12-20T10:01:15;7.50;94.80
73955;DHT22;62306;52.516;13.290;2022-12-20T10:03:42;7.50;94.80
73955;DHT22;62306;52.516;13.290;2022-12-20T10:06:17;7.50;94.80
73955;DHT22;62306;52.516;13.290;2022-12-20T10:08:50;7.50;94.80
73955;DHT22;62306;52.516;13.290;2022-12-20T10:11:35;7.50;95.00
73955;DHT22;62306;52.516;13.290;2022-12-20T10:14:14;7.40;94.90
73955;DHT22;62306;52.516;13.290;2022-12-20T10:16:45;7.50;94.80
73955;DHT22;62306;52.516;13.290;2022-12-20T10:19:24;7.50;94.70
73955;DHT22;62306;52.516;13.290;2022-12-20T10:22:04;7.60;94.60
73955;DHT22;62306;52.516;13.290;2022-12-20T10:24:34;7.60;94.50
73955;DHT22;62306;52.516;13.290;2022-12-20T10:27:08;7.60;94.40
73955;DHT22;62306;52.516;13.290;2022-12-20T10:29:37;7.70;94.40
73955;DHT22;62306;52.516;13.290;2022-12-20T10:32:11;7.60;94.40
73955;DHT22;62306;52.516;13.290;2022-12-20T10:34:39;7.60;94.50
73955;DHT22;62306;52.516;13.290;2022-12-20T10:37:14;7.60;94.60
73955;DHT22;62306;52.516;13.290;2022-12-20T10:39:43;7.50;94.40
73955;DHT22;62306;52.516;13.290;2022-12-20T10:42:25;7.60;94.60
73955;DHT22;62306;52.516;13.290;2022-12-20T10:44:53;7.60;94.70
73955;DHT22;62306;52.516;13.290;2022-12-20T10:47:28;7.60;94.60
73955;DHT22;62306;52.516;13.290;2022-12-20T10:50:17;7.70;94.80
73955;DHT22;62306;52.516;13.290;2022-12-20T10:53:07;7.90;94.50
73955;DHT22;62306;52.516;13.290;2022-12-20T10:55:40;8.00;94.40
73955;DHT22;62306;52.516;13.290;2022-12-20T10:58:14;8.00;94.20
73955;DHT22;62306;52.516;13.290;2022-12-20T11:00:42;8.10;93.90
73955;DHT22;62306;52.516;13.290;2022-12-20T11:03:16;8.20;93.70
73955;DHT22;62306;52.516;13.290;2022-12-20T11:05:55;8.20;93.40
73955;DHT22;62306;52.516;13.290;2022-12-20T11:08:25;8.30;93.20
73955;DHT22;62306;52.516;13.290;2022-12-20T11:11:11;8.30;93.10
73955;DHT22;62306;52.516;13.290;2022-12-20T11:13:39;8.20;93.10
73955;DHT22;62306;52.516;13.290;2022-12-20T11:16:22;8.20;93.20
73955;DHT22;62306;52.516;13.290;2022-12-20T11:18:53;8.10;93.10
73955;DHT22;62306;52.516;13.290;2022-12-20T11:21:26;8.10;93.20
73955;DHT22;62306;52.516;13.290;2022-12-20T11:24:04;8.20;93.20
73955;DHT22;62306;52.516;13.290;2022-12-20T11:30:02;8.30;92.90
73955;DHT22;62306;52.516;13.290;2022-12-20T11:32:48;8.30;92.70
73955;DHT22;62306;52.516;13.290;2022-12-20T11:35:22;8.30;92.50
73955;DHT22;62306;52.516;13.290;2022-12-20T11:37:57;8.30;92.60
73955;DHT22;62306;52.516;13.290;2022-12-20T11:40:30;8.30;92.50
73955;DHT22;62306;52.516;13.290;2022-12-20T11:43:14;8.40;92.30
73955;DHT22;62306;52.516;13.290;2022-12-20T11:45:53;8.40;92.10
73955;DHT22;62306;52.516;13.290;2022-12-20T11:48:40;8.50;92.10
73955;DHT22;62306;52.516;13.290;2022-12-20T11:51:18;8.60;91.90
73955;DHT22;62306;52.516;13.290;2022-12-20T11:53:51;8.60;91.70
73955;DHT22;62306;52.516;13.290;2022-12-20T11:56:25;8.60;91.50
73955;DHT22;62306;52.516;13.290;2022-12-20T11:58:54;8.60;91.60
73955;DHT22;62306;52.516;13.290;2022-12-20T12:01:25;8.60;91.60
73955;DHT22;62306;52.516;13.290;2022-12-20T12:04:03;8.60;91.70
73955;DHT22;62306;52.516;13.290;2022-12-20T12:06:35;8.60;91.60
73955;DHT22;62306;52.516;13.290;2022-12-20T12:09:21;8.60;91.70
73955;DHT22;62306;52.516;13.290;2022-12-20T12:11:55;8.60;91.70
73955;DHT22;62306;52.516;13.290;2022-12-20T12:14:34;8.70;91.70
73955;DHT22;62306;52.516;13.290;2022-12-20T12:17:08;8.60;91.60
73955;DHT22;62306;52.516;13.290;2022-12-20T12:19:42;8.60;91.40
73955;DHT22;62306;52.516;13.290;2022-12-20T12:22:18;8.70;91.70
73955;DHT22;62306;52.516;13.290;2022-12-20T12:24:50;8.70;91.70
73955;DHT22;62306;52.516;13.290;2022-12-20T12:27:22;8.70;91.80
73955;DHT22;62306;52.516;13.290;2022-12-20T12:29:50;8.70;91.70
73955;DHT22;62306;52.516;13.290;2022-12-20T12:32:24;8.60;91.90
73955;DHT22;62306;52.516;13.290;2022-12-20T12:35:06;8.60;92.00
73955;DHT22;62306;52.516;13.290;2022-12-20T12:37:48;8.50;92.20
73955;DHT22;62306;52.516;13.290;2022-12-20T12:40:53;8.50;92.20
73955;DHT22;62306;52.516;13.290;2022-12-20T12:43:44;8.60;92.30
73955;DHT22;62306;52.516;13.290;2022-12-20T12:46:14;8.50;92.20
73955;DHT22;62306;52.516;13.290;2022-12-20T12:48:45;8.60;92.10
73955;DHT22;62306;52.516;13.290;2022-12-20T12:51:16;8.60;92.00
73955;DHT22;62306;52.516;13.290;2022-12-20T12:53:50;8.60;91.90
73955;DHT22;62306;52.516;13.290;2022-12-20T12:56:36;8.60;92.30
73955;DHT22;62306;52.516;13.290;2022-12-20T13:02:21;8.60;91.80
73955;DHT22;62306;52.516;13.290;2022-12-20T13:04:53;8.70;91.90
73955;DHT22;62306;52.516;13.290;2022-12-20T13:07:26;8.60;91.80
73955;DHT22;62306;52.516;13.290;2022-12-20T13:09:53;8.60;91.70
73955;DHT22;62306;52.516;13.290;2022-12-20T13:12:54;8.60;91.80
73955;DHT22;62306;52.516;13.290;2022-12-20T13:15:48;8.60;91.70
73955;DHT22;62306;52.516;13.290;2022-12-20T13:18:24;8.60;91.60
73955;DHT22;62306;52.516;13.290;2022-12-20T13:21:23;8.50;91.70
73955;DHT22;62306;52.516;13.290;2022-12-20T13:27:13;8.50;91.80
73955;DHT22;62306;52.516;13.290;2022-12-20T13:29:52;8.40;91.60
73955;DHT22;62306;52.516;13.290;2022-12-20T13:35:42;8.40;91.60
73955;DHT22;62306;52.516;13.290;2022-12-20T13:41:17;8.30;91.30
73955;DHT22;62306;52.516;13.290;2022-12-20T13:43:46;8.30;91.30
73955;DHT22;62306;52.516;13.290;2022-12-20T13:46:20;8.30;91.00
73955;DHT22;62306;52.516;13.290;2022-12-20T13:48:51;8.30;91.10
73955;DHT22;62306;52.516;13.290;2022-12-20T13:51:24;8.30;91.00
73955;DHT22;62306;52.516;13.290;2022-12-20T13:53:52;8.20;90.90
73955;DHT22;62306;52.516;13.290;2022-12-20T13:56:34;8.20;90.80
73955;DHT22;62306;52.516;13.290;2022-12-20T13:59:05;8.20;90.90
73955;DHT22;62306;52.516;13.290;2022-12-20T14:01:33;8.10;90.60
73955;DHT22;62306;52.516;13.290;2022-12-20T14:04:03;8.10;90.60
73955;DHT22;62306;52.516;13.290;2022-12-20T14:06:33;8.10;90.70
73955;DHT22;62306;52.516;13.290;2022-12-20T14:09:00;8.10;90.70
73955;DHT22;62306;52.516;13.290;2022-12-20T14:11:30;8.00;90.70
73955;DHT22;62306;52.516;13.290;2022-12-20T14:13:59;8.00;90.70
73955;DHT22;62306;52.516;13.290;2022-12-20T14:16:28;8.00;90.80
73955;DHT22;62306;52.516;13.290;2022-12-20T14:19:02;8.00;90.80
73955;DHT22;62306;52.516;13.290;2022-12-20T14:21:30;8.00;90.70
73955;DHT22;62306;52.516;13.290;2022-12-20T14:24:02;8.00;90.60
73955;DHT22;62306;52.516;13.290;2022-12-20T14:26:37;8.00;90.60
73955;DHT22;62306;52.516;13.290;2022-12-20T14:29:10;8.00;90.70
73955;DHT22;62306;52.516;13.290;2022-12-20T14:31:40;8.00;90.50
73955;DHT22;62306;52.516;13.290;2022-12-20T14:34:13;8.00;90.40
73955;DHT22;62306;52.516;13.290;2022-12-20T14:36:43;8.00;90.40
73955;DHT22;62306;52.516;13.290;2022-12-20T14:39:26;7.90;90.20
73955;DHT22;62306;52.516;13.290;2022-12-20T14:41:55;7.90;90.30
73955;DHT22;62306;52.516;13.290;2022-12-20T14:44:24;8.00;90.30
73955;DHT22;62306;52.516;13.290;2022-12-20T14:46:52;7.90;90.20
73955;DHT22;62306;52.516;13.290;2022-12-20T14:49:23;7.90;90.20
73955;DHT22;62306;52.516;13.290;2022-12-20T14:51:52;7.90;90.30
73955;DHT22;62306;52.516;13.290;2022-12-20T14:54:21;7.90;90.40
73955;DHT22;62306;52.516;13.290;2022-12-20T14:56:50;7.90;90.30
73955;DHT22;62306;52.516;13.290;2022-12-20T14:59:23;7.90;90.20
73955;DHT22;62306;52.516;13.290;2022-12-20T15:01:51;7.90;90.10
73955;DHT22;62306;52.516;13.290;2022-12-20T15:04:22;7.80;90.10
73955;DHT22;62306;52.516;13.290;2022-12-20T15:06:49;7.80;90.10
73955;DHT22;62306;52.516;13.290;2022-12-20T15:09:17;7.80;90.00
73955;DHT22;62306;52.516;13.290;2022-12-20T15:11:45;7.80;89.80
73955;DHT22;62306;52.516;13.290;2022-12-20T15:14:21;7.80;90.00
73955;DHT22;62306;52.516;13.290;2022-12-20T15:16:51;7.80;89.80
73955;DHT22;62306;52.516;13.290;2022-12-20T15:19:18;7.70;89.90
73955;DHT22;62306;52.516;13.290;2022-12-20T15:21:46;7.70;89.80
73955;DHT22;62306;52.516;13.290;2022-12-20T15:24:14;7.70;89.50
73955;DHT22;62306;52.516;13.290;2022-12-20T15:26:43;7.60;89.60
73955;DHT22;62306;52.516;13.290;2022-12-20T15:29:14;7.60;89.60
73955;DHT22;62306;52.516;13.290;2022-12-20T15:31:44;7.60;89.70
73955;DHT22;62306;52.516;13.290;2022-12-20T15:34:14;7.60;89.90
73955;DHT22;62306;52.516;13.290;2022-12-20T15:36:44;7.60;89.80
73955;DHT22;62306;52.516;13.290;2022-12-20T15:39:12;7.60;89.70
73955;DHT22;62306;52.516;13.290;2022-12-20T15:41:40;7.60;90.00
73955;DHT22;62306;52.516;13.290;2022-12-20T15:44:12;7.60;90.10
73955;DHT22;62306;52.516;13.290;2022-12-20T15:46:40;7.50;90.10
73955;DHT22;62306;52.516;13.290;2022-12-20T15:49:13;7.50;89.70
73955;DHT22;62306;52.516;13.290;2022-12-20T15:51:40;7.50;90.00
73955;DHT22;62306;52.516;13.290;2022-12-20T15:54:18;7.50;90.00
73955;DHT22;62306;52.516;13.290;2022-12-20T15:56:47;7.50;90.00
73955;DHT22;62306;52.516;13.290;2022-12-20T15:59:14;7.50;89.80
73955;DHT22;62306;52.516;13.290;2022-12-20T16:01:41;7.50;90.00
73955;DHT22;62306;52.516;13.290;2022-12-20T16:04:13;7.50;90.20
73955;DHT22;62306;52.516;13.290;2022-12-20T16:06:41;7.40;89.80